sensor_id;sensor_type;location;lat;lon;timestamp;temperature;humidity
1534;DHT22;760;48.822;9.304;2022-11-25T05:05:58;2.30;99.90
1534;DHT22;760;48.822;9.304;2022-11-25T05:08:24;2.30;99.90
1534;DHT22;760;48.822;9.304;2022-11-25T05:10:49;2.30;99.90
1534;DHT22;760;48.822;9.304;2022-11-25T05:13:15;2.30;99.90
1534;DHT22;760;48.822;9.304;2022-11-25T05:15:41;2.30;99.90
1534;DHT22;760;48.822;9.304;2022-11-25T05:18:07;2.30;99.90
1534;DHT22;760;48.822;9.304;2022-11-25T05:20:33;2.30;99.90
1534;DHT22;760;48.822;9.304;2022-11-25T05:22:58;2.30;99.90
1534;DHT22;760;48.822;9.304;2022-11-25T05:25:24;2.30;99.90
1534;DHT22;760;48.822;9.304;2022-11-25T05:27:51;2.30;99.90
1534;DHT22;760;48.822;9.304;2022-11-25T05:30:16;2.30;99.90
1534;DHT22;760;48.822;9.304;2022-11-25T05:32:42;2.20;99.90
1534;DHT22;760;48.822;9.304;2022-11-25T05:35:09;2.20;99.90
1534;DHT22;760;48.822;9.304;2022-11-25T05:37:34;2.20;99.90
1534;DHT22;760;48.822;9.304;2022-11-25T05:40:00;2.20;99.90
1534;DHT22;760;48.822;9.304;2022-11-25T05:42:28;2.20;99.90
1534;DHT22;760;48.822;9.304;2022-11-25T05:44:53;2.20;99.90
1534;DHT22;760;48.822;9.304;2022-11-25T05:47:19;2.30;99.90
1534;DHT22;760;48.822;9.304;2022-11-25T05:49:45;2.30;99.90
1534;DHT22;760;48.822;9.304;2022-11-25T05:52:10;2.30;99.90
1534;DHT22;760;48.822;9.304;2022-11-25T05:54:36;2.40;99.90
1534;DHT22;760;48.822;9.304;2022-11-25T05:57:01;2.40;99.90
1534;DHT22;760;48.822;9.304;2022-11-25T05:59:27;2.40;99.90
1534;DHT22;760;48.822;9.304;2022-11-25T06:01:53;2.50;99.90
1534;DHT22;760;48.822;9.304;2022-11-25T06:04:18;2.50;99.90
1534;DHT22;760;48.822;9.304;2022-11-25T06:06:44;2.50;99.90
1534;DHT22;760;48.822;9.304;2022-11-25T06:09:09;2.50;99.90
1534;DHT22;760;48.822;9.304;2022-11-25T06:11:35;2.40;99.90
1534;DHT22;760;48.822;9.304;2022-11-25T06:14:01;2.50;99.90
1534;DHT22;760;48.822;9.304;2022-11-25T06:16:26;2.40;99.90
1534;DHT22;760;48.822;9.304;2022-11-25T06:18:52;2.40;99.90
1534;DHT22;760;48.822;9.304;2022-11-25T06:21:18;2.40;99.90
1534;DHT22;760;48.822;9.304;2022-11-25T06:23:44;2.40;99.90
1534;DHT22;760;48.822;9.304;2022-11-25T06:26:16;2.40;99.90
1534;DHT22;760;48.822;9.304;2022-11-25T06:28:42;2.40;99.90
1534;DHT22;760;48.822;9.304;2022-11-25T06:31:11;2.40;99.90
1534;DHT22;760;48.822;9.304;2022-11-25T06:33:37;2.30;99.90
1534;DHT22;760;48.822;9.304;2022-11-25T06:36:04;2.40;99.90
1534;DHT22;760;48.822;9.304;2022-11-25T06:38:30;2.30;99.90
1534;DHT22;760;48.822;9.304;2022-11-25T06:41:04;2.30;99.90
1534;DHT22;760;48.822;9.304;2022-11-25T06:43:30;2.30;99.90
1534;DHT22;760;48.822;9.304;2022-11-25T06:46:08;2.30;99.90
1534;DHT22;760;48.822;9.304;2022-11-25T06:48:34;2.30;99.90
1534;DHT22;760;48.822;9.304;2022-11-25T06:51:03;2.30;99.90
1534;DHT22;760;48.822;9.304;2022-11-25T06:53:30;2.30;99.90
1534;DHT22;760;48.822;9.304;2022-11-25T06:58:37;2.30;99.90
1534;DHT22;760;48.822;9.304;2022-11-25T07:03:40;2.30;99.90
1534;DHT22;760;48.822;9.304;2022-11-25T07:06:05;2.30;99.90
1534;DHT22;760;48.822;9.304;2022-11-25T07:08:31;2.30;99.90
1534;DHT22;760;48.822;9.304;2022-11-25T07:13:43;2.30;99.90
1534;DHT22;760;48.822;9.304;2022-11-25T07:16:10;2.40;99.90
1534;DHT22;760;48.822;9.304;2022-11-25T07:18:37;2.40;99.90
1534;DHT22;760;48.822;9.304;2022-11-25T07:23:33;2.60;99.90
1534;DHT22;760;48.822;9.304;2022-11-25T07:26:04;2.80;99.90
1534;DHT22;760;48.822;9.304;2022-11-25T07:28:30;2.90;99.90
1534;DHT22;760;48.822;9.304;2022-11-25T07:33:44;3.30;99.90
1534;DHT22;760;48.822;9.304;2022-11-25T07:36:11;3.50;99.90
1534;DHT22;760;48.822;9.304;2022-11-25T07:38:38;3.60;99.90
1534;DHT22;760;48.822;9.304;2022-11-25T07:41:09;3.70;99.90
1534;DHT22;760;48.822;9.304;2022-11-25T07:43:35;3.80;99.90
1534;DHT22;760;48.822;9.304;2022-11-25T07:46:34;3.90;99.90
1534;DHT22;760;48.822;9.304;2022-11-25T07:49:05;4.00;99.90
1534;DHT22;760;48.822;9.304;2022-11-25T07:51:39;4.00;99.90
1534;DHT22;760;48.822;9.304;2022-11-25T07:54:07;4.10;99.90
1534;DHT22;760;48.822;9.304;2022-11-25T07:56:35;4.20;99.90
1534;DHT22;760;48.822;9.304;2022-11-25T07:59:01;4.30;99.90
1534;DHT22;760;48.822;9.304;2022-11-25T08:01:27;4.40;99.90
1534;DHT22;760;48.822;9.304;2022-11-25T08:03:53;4.50;99.90
1534;DHT22;760;48.822;9.304;2022-11-25T08:06:22;4.50;99.90
1534;DHT22;760;48.822;9.304;2022-11-25T08:08:49;4.60;99.90
1534;DHT22;760;48.822;9.304;2022-11-25T08:11:20;4.60;99.90
1534;DHT22;760;48.822;9.304;2022-11-25T08:13:46;4.60;99.90
1534;DHT22;760;48.822;9.304;2022-11-25T08:16:14;4.60;99.90
1534;DHT22;760;48.822;9.304;2022-11-25T08:18:41;4.60;99.90
1534;DHT22;760;48.822;9.304;2022-11-25T08:21:09;4.60;99.90
1534;DHT22;760;48.822;9.304;2022-11-25T08:23:36;4.60;99.90
1534;DHT22;760;48.822;9.304;2022-11-25T08:26:12;4.50;99.90
1534;DHT22;760;48.822;9.304;2022-11-25T08:28:39;4.60;99.90
1534;DHT22;760;48.822;9.304;2022-11-25T08:31:12;4.60;99.90
1534;DHT22;760;48.822;9.304;2022-11-25T08:33:38;4.60;99.90
1534;DHT22;760;48.822;9.304;2022-11-25T08:36:05;4.60;99.90
1534;DHT22;760;48.822;9.304;2022-11-25T08:38:31;4.70;99.90
1534;DHT22;760;48.822;9.304;2022-11-25T08:40:57;4.70;99.90
1534;DHT22;760;48.822;9.304;2022-11-25T08:43:23;4.80;99.90
1534;DHT22;760;48.822;9.304;2022-11-25T08:45:49;4.90;99.90
1534;DHT22;760;48.822;9.304;2022-11-25T08:48:17;4.90;99.90
1534;DHT22;760;48.822;9.304;2022-11-25T08:50:48;4.90;99.90
1534;DHT22;760;48.822;9.304;2022-11-25T08:53:14;5.00;99.90
1534;DHT22;760;48.822;9.304;2022-11-25T08:55:40;5.00;99.90
1534;DHT22;760;48.822;9.304;2022-11-25T08:58:05;5.00;99.90
1534;DHT22;760;48.822;9.304;2022-11-25T09:00:35;5.10;99.90
1534;DHT22;760;48.822;9.304;2022-11-25T09:03:01;5.20;99.90
1534;DHT22;760;48.822;9.304;2022-11-25T09:05:27;5.40;99.90
1534;DHT22;760;48.822;9.304;2022-11-25T09:08:00;5.50;99.90
1534;DHT22;760;48.822;9.304;2022-11-25T09:10:26;5.70;99.90
1534;DHT22;760;48.822;9.304;2022-11-25T09:12:52;5.80;99.90
1534;DHT22;760;48.822;9.304;2022-11-25T09:15:17;5.80;99.90
1534;DHT22;760;48.822;9.304;2022-11-25T09:17:43;5.90;99.90
1534;DHT22;760;48.822;9.304;2022-11-25T09:20:09;6.00;99.90
1534;DHT22;760;48.822;9.304;2022-11-25T09:22:35;6.20;99.90
1534;DHT22;760;48.822;9.304;2022-11-25T09:25:00;6.60;99.90
1534;DHT22;760;48.822;9.304;2022-11-25T09:27:26;7.20;99.90
1534;DHT22;760;48.822;9.304;2022-11-25T09:29:52;7.60;99.90
1534;DHT22;760;48.822;9.304;2022-11-25T09:32:17;7.80;99.90
1534;DHT22;760;48.822;9.304;2022-11-25T09:34:43;8.10;99.90
1534;DHT22;760;48.822;9.304;2022-11-25T09:37:10;8.30;99.90
1534;DHT22;760;48.822;9.304;2022-11-25T09:39:36;8.60;99.90
1534;DHT22;760;48.822;9.304;2022-11-25T09:45:12;9.30;99.90
1534;DHT22;760;48.822;9.304;2022-11-25T09:53:52;10.20;99.90
1534;DHT22;760;48.822;9.304;2022-11-25T09:58:54;10.30;99.90
1534;DHT22;760;48.822;9.304;2022-11-25T10:01:24;10.30;99.90
1534;DHT22;760;48.822;9.304;2022-11-25T10:04:01;10.10;99.90
1534;DHT22;760;48.822;9.304;2022-11-25T10:06:32;10.00;99.90
1534;DHT22;760;48.822;9.304;2022-11-25T10:09:14;9.90;99.90
1534;DHT22;760;48.822;9.304;2022-11-25T10:11:51;9.90;99.90
1534;DHT22;760;48.822;9.304;2022-11-25T10:17:14;9.80;99.90
1534;DHT22;760;48.822;9.304;2022-11-25T10:22:30;9.90;99.90
1534;DHT22;760;48.822;9.304;2022-11-25T10:24:59;9.80;99.90
1534;DHT22;760;48.822;9.304;2022-11-25T10:27:36;9.80;99.90
1534;DHT22;760;48.822;9.304;2022-11-25T10:30:19;9.80;99.90
1534;DHT22;760;48.822;9.304;2022-11-25T10:32:58;9.90;99.90
1534;DHT22;760;48.822;9.304;2022-11-25T10:35:30;9.70;99.90
1534;DHT22;760;48.822;9.304;2022-11-25T10:37:59;9.60;99.90
1534;DHT22;760;48.822;9.304;2022-11-25T10:40:26;9.60;99.90
1534;DHT22;760;48.822;9.304;2022-11-25T10:42:52;9.50;99.90
1534;DHT22;760;48.822;9.304;2022-11-25T10:45:27;9.60;99.90
1534;DHT22;760;48.822;9.304;2022-11-25T10:48:13;9.60;99.90
1534;DHT22;760;48.822;9.304;2022-11-25T10:51:11;9.60;99.90
1534;DHT22;760;48.822;9.304;2022-11-25T10:53:41;9.70;99.90
1534;DHT22;760;48.822;9.304;2022-11-25T10:56:16;9.70;99.90
1534;DHT22;760;48.822;9.304;2022-11-25T10:58:42;9.80;99.90
1534;DHT22;760;48.822;9.304;2022-11-25T11:01:16;9.80;99.90
1534;DHT22;760;48.822;9.304;2022-11-25T11:03:45;9.80;99.90
1534;DHT22;760;48.822;9.304;2022-11-25T11:06:34;9.90;99.90
1534;DHT22;760;48.822;9.304;2022-11-25T11:09:00;9.90;99.90
1534;DHT22;760;48.822;9.304;2022-11-25T11:11:26;10.00;99.90
1534;DHT22;760;48.822;9.304;2022-11-25T11:14:12;10.00;99.90
1534;DHT22;760;48.822;9.304;2022-11-25T11:16:42;10.10;99.90
1534;DHT22;760;48.822;9.304;2022-11-25T11:19:27;10.10;99.90
1534;DHT22;760;48.822;9.304;2022-11-25T11:21:54;10.20;99.90
1534;DHT22;760;48.822;9.304;2022-11-25T11:24:32;10.30;99.90
1534;DHT22;760;48.822;9.304;2022-11-25T11:27:16;10.30;99.90
1534;DHT22;760;48.822;9.304;2022-11-25T11:29:43;10.20;99.90
1534;DHT22;760;48.822;9.304;2022-11-25T11:32:21;10.20;99.90
1534;DHT22;760;48.822;9.304;2022-11-25T11:35:05;10.10;99.90
1534;DHT22;760;48.822;9.304;2022-11-25T11:37:41;10.00;99.90
1534;DHT22;760;48.822;9.304;2022-11-25T11:45:36;9.60;99.90
1534;DHT22;760;48.822;9.304;2022-11-25T11:51:28;9.50;99.90
1534;DHT22;760;48.822;9.304;2022-11-25T11:56:59;9.50;99.90
1534;DHT22;760;48.822;9.304;2022-11-25T11:59:51;9.60;99.90
1534;DHT22;760;48.822;9.304;2022-11-25T12:18:33;9.60;99.90
1534;DHT22;760;48.822;9.304;2022-11-25T12:24:35;9.50;99.90
1534;DHT22;760;48.822;9.304;2022-11-25T12:30:11;9.50;99.90
1534;DHT22;760;48.822;9.304;2022-11-25T12:38:17;9.30;99.90
1534;DHT22;760;48.822;9.304;2022-11-25T12:40:52;9.30;99.90
1534;DHT22;760;48.822;9.304;2022-11-25T12:43:39;9.20;99.90
1534;DHT22;760;48.822;9.304;2022-11-25T12:48:55;9.10;99.90
1534;DHT22;760;48.822;9.304;2022-11-25T12:52:09;9.10;99.90
1534;DHT22;760;48.822;9.304;2022-11-25T13:00:17;8.90;99.90
1534;DHT22;760;48.822;9.304;2022-11-25T13:08:27;8.80;99.90
1534;DHT22;760;48.822;9.304;2022-11-25T13:11:33;8.80;99.90
1534;DHT22;760;48.822;9.304;2022-11-25T13:14:23;8.70;99.90
1534;DHT22;760;48.822;9.304;2022-11-25T13:16:50;8.70;99.90
1534;DHT22;760;48.822;9.304;2022-11-25T13:19:18;8.60;99.90
1534;DHT22;760;48.822;9.304;2022-11-25T13:22:03;8.70;99.90
1534;DHT22;760;48.822;9.304;2022-11-25T13:24:38;8.70;99.90
1534;DHT22;760;48.822;9.304;2022-11-25T13:27:04;8.60;99.90
1534;DHT22;760;48.822;9.304;2022-11-25T13:34:29;8.60;99.90
1534;DHT22;760;48.822;9.304;2022-11-25T13:37:00;8.60;99.90
1534;DHT22;760;48.822;9.304;2022-11-25T13:39:35;8.70;99.90
1534;DHT22;760;48.822;9.304;2022-11-25T13:42:25;8.70;99.90
1534;DHT22;760;48.822;9.304;2022-11-25T13:44:56;8.80;99.90
1534;DHT22;760;48.822;9.304;2022-11-25T13:47:38;8.90;99.90
1534;DHT22;760;48.822;9.304;2022-11-25T13:50:17;9.00;99.90
1534;DHT22;760;48.822;9.304;2022-11-25T13:52:49;9.10;99.90
1534;DHT22;760;48.822;9.304;2022-11-25T13:55:31;9.10;99.90
1534;DHT22;760;48.822;9.304;2022-11-25T14:05:58;9.30;99.90
1534;DHT22;760;48.822;9.304;2022-11-25T14:09:03;9.40;99.90
1534;DHT22;760;48.822;9.304;2022-11-25T14:19:57;9.40;99.90
1534;DHT22;760;48.822;9.304;2022-11-25T14:25:27;9.40;99.90
1534;DHT22;760;48.822;9.304;2022-11-25T14:31:04;9.30;99.90
1534;DHT22;760;48.822;9.304;2022-11-25T14:33:42;9.30;99.90
1534;DHT22;760;48.822;9.304;2022-11-25T14:36:13;9.30;99.90
1534;DHT22;760;48.822;9.304;2022-11-25T14:39:09;9.40;99.90
1534;DHT22;760;48.822;9.304;2022-11-25T14:42:03;9.40;99.90
1534;DHT22;760;48.822;9.304;2022-11-25T14:44:54;9.40;99.90
1534;DHT22;760;48.822;9.304;2022-11-25T14:47:26;9.50;99.90
1534;DHT22;760;48.822;9.304;2022-11-25T14:49:54;9.50;99.90
1534;DHT22;760;48.822;9.304;2022-11-25T14:52:24;9.60;99.90
1534;DHT22;760;48.822;9.304;2022-11-25T14:54:53;9.60;99.90
1534;DHT22;760;48.822;9.304;2022-11-25T14:57:28;9.50;99.90
1534;DHT22;760;48.822;9.304;2022-11-25T15:00:01;9.60;99.90
1534;DHT22;760;48.822;9.304;2022-11-25T15:02:32;9.60;99.90
1534;DHT22;760;48.822;9.304;2022-11-25T15:05:15;9.60;99.90
1534;DHT22;760;48.822;9.304;2022-11-25T15:07:42;9.60;99.90
1534;DHT22;760;48.822;9.304;2022-11-25T15:10:35;9.60;99.90
1534;DHT22;760;48.822;9.304;2022-11-25T15:15:54;9.50;99.90
1534;DHT22;760;48.822;9.304;2022-11-25T15:18:23;9.50;99.90
1534;DHT22;760;48.822;9.304;2022-11-25T15:20:55;9.50;99.90
1534;DHT22;760;48.822;9.304;2022-11-25T15:23:30;9.50;99.90
1534;DHT22;760;48.822;9.304;2022-11-25T15:26:00;9.50;99.90
1534;DHT22;760;48.822;9.304;2022-11-25T15:28:32;9.50;99.90
1534;DHT22;760;48.822;9.304;2022-11-25T15:30:59;9.50;99.90
1534;DHT22;760;48.822;9.304;2022-11-25T15:33:27;9.50;99.90
1534;DHT22;760;48.822;9.304;2022-11-25T15:35:53;9.40;99.90
1534;DHT22;760;48.822;9.304;2022-11-25T15:38:37;9.40;99.90
1534;DHT22;760;48.822;9.304;2022-11-25T15:41:04;9.40;99.90
1534;DHT22;760;48.822;9.304;2022-11-25T15:43:31;9.40;99.90
1534;DHT22;760;48.822;9.304;2022-11-25T15:46:03;9.40;99.90
1534;DHT22;760;48.822;9.304;2022-11-25T15:48:37;9.40;99.90
1534;DHT22;760;48.822;9.304;2022-11-25T15:54:22;9.40;99.90
1534;DHT22;760;48.822;9.304;2022-11-25T15:56:50;9.40;99.90
1534;DHT22;760;48.822;9.304;2022-11-25T16:02:34;9.30;99.90
1534;DHT22;760;48.822;9.304;2022-11-25T16:12:42;9.20;99.90
1534;DHT22;760;48.822;9.304;2022-11-25T16:15:17;9.20;99.90
1534;DHT22;760;48.822;9.304;2022-11-25T16:17:43;9.20;99.90
1534;DHT22;760;48.822;9.304;2022-11-25T16:20:18;9.20;99.90
1534;DHT22;760;48.822;9.304;2022-11-25T16:22:44;9.10;99.90
1534;DHT22;760;48.822;9.304;2022-11-25T16:25:11;9.20;99.90
1534;DHT22;760;48.822;9.304;2022-11-25T16:27:39;9.10;99.90
1534;DHT22;760;48.822;9.304;2022-11-25T16:32:31;9.00;99.90
1534;DHT22;760;48.822;9.304;2022-11-25T16:35:12;9.00;99.90
1534;DHT22;760;48.822;9.304;2022-11-25T16:37:39;9.00;99.90
1534;DHT22;760;48.822;9.304;2022-11-25T16:40:05;9.00;99.90
1534;DHT22;760;48.822;9.304;2022-11-25T16:42:31;9.00;99.90
1534;DHT22;760;48.822;9.304;2022-11-25T16:44:59;9.00;99.90
1534;DHT22;760;48.822;9.304;2022-11-25T16:47:25;9.00;99.90
1534;DHT22;760;48.822;9.304;2022-11-25T16:49:51;9.00;99.90
1534;DHT22;760;48.822;9.304;2022-11-25T16:52:17;9.00;99.90
1534;DHT22;760;48.822;9.304;2022-11-25T16:54:43;9.00;99.90
1534;DHT22;760;48.822;9.304;2022-11-25T16:57:16;9.00;99.90
1534;DHT22;760;48.822;9.304;2022-11-25T16:59:43;9.00;99.90
1534;DHT22;760;48.822;9.304;2022-11-25T17:02:16;9.00;99.90
1534;DHT22;760;48.822;9.304;2022-11-25T17:04:43;9.00;99.90
1534;DHT22;760;48.822;9.304;2022-11-25T17:07:11;9.00;99.90
1534;DHT22;760;48.822;9.304;2022-11-25T17:09:37;9.00;99.90
1534;DHT22;760;48.822;9.304;2022-11-25T17:12:05;9.00;99.90
1534;DHT22;760;48.822;9.304;2022-11-25T17:14:32;9.00;99.90
1534;DHT22;760;48.822;9.304;2022-11-25T17:17:00;9.00;99.90
1534;DHT22;760;48.822;9.304;2022-11-25T17:19:26;8.90;99.90
1534;DHT22;760;48.822;9.304;2022-11-25T17:21:52;8.90;99.90
1534;DHT22;760;48.822;9.304;2022-11-25T17:24:20;8.90;99.90
1534;DHT22;760;48.822;9.304;2022-11-25T17:26:55;8.90;99.90
1534;DHT22;760;48.822;9.304;2022-11-25T17:29:33;8.90;99.90
1534;DHT22;760;48.822;9.304;2022-11-25T17:32:00;8.80;99.90
1534;DHT22;760;48.822;9.304;2022-11-25T17:34:26;8.90;99.90
1534;DHT22;760;48.822;9.304;2022-11-25T17:36:51;8.80;99.90
1534;DHT22;760;48.822;9.304;2022-11-25T17:39:17;8.90;99.90
1534;DHT22;760;48.822;9.304;2022-11-25T17:41:46;8.90;99.90
1534;DHT22;760;48.822;9.304;2022-11-25T17:44:25;8.90;99.90
1534;DHT22;760;48.822;9.304;2022-11-25T17:46:52;8.80;99.90
1534;DHT22;760;48.822;9.304;2022-11-25T17:49:18;8.90;99.90
1534;DHT22;760;48.822;9.304;2022-11-25T17:51:44;8.90;99.90
1534;DHT22;760;48.822;9.304;2022-11-25T17:54:10;8.90;99.90
1534;DHT22;760;48.822;9.304;2022-11-25T17:56:38;8.90;99.90
1534;DHT22;760;48.822;9.304;2022-11-25T17:59:09;8.90;99.90
1534;DHT22;760;48.822;9.304;2022-11-25T18:01:35;8.90;99.90
1534;DHT22;760;48.822;9.304;2022-11-25T18:04:31;8.90;99.90
1534;DHT22;760;48.822;9.304;2022-11-25T18:07:00;8.90;99.90
1534;DHT22;760;48.822;9.304;2022-11-25T18:09:25;9.00;99.90
1534;DHT22;760;48.822;9.304;2022-11-25T18:11:53;9.00;99.90
1534;DHT22;760;48.822;9.304;2022-11-25T18:14:30;8.90;99.90
1534;DHT22;760;48.822;9.304;2022-11-25T18:16:59;8.90;99.90
1534;DHT22;760;48.822;9.304;2022-11-25T18:19:25;8.90;99.90
1534;DHT22;760;48.822;9.304;2022-11-25T18:21:51;8.90;99.90
1534;DHT22;760;48.822;9.304;2022-11-25T18:24:17;8.90;99.90
1534;DHT22;760;48.822;9.304;2022-11-25T18:26:48;8.90;99.90
1534;DHT22;760;48.822;9.304;2022-11-25T18:29:23;8.80;99.90
1534;DHT22;760;48.822;9.304;2022-11-25T18:31:51;8.80;99.90
1534;DHT22;760;48.822;9.304;2022-11-25T18:34:17;8.90;99.90
1534;DHT22;760;48.822;9.304;2022-11-25T18:36:43;8.90;99.90
1534;DHT22;760;48.822;9.304;2022-11-25T18:39:10;8.90;99.90
1534;DHT22;760;48.822;9.304;2022-11-25T18:41:36;8.90;99.90
1534;DHT22;760;48.822;9.304;2022-11-25T18:44:04;8.90;99.90
1534;DHT22;760;48.822;9.304;2022-11-25T18:46:35;8.80;99.90
1534;DHT22;760;48.822;9.304;2022-11-25T18:49:11;8.80;99.90
1534;DHT22;760;48.822;9.304;2022-11-25T18:51:40;8.80;99.90
1534;DHT22;760;48.822;9.304;2022-11-25T18:54:06;8.80;99.90
1534;DHT22;760;48.822;9.304;2022-11-25T18:56:33;8.80;99.90
1534;DHT22;760;48.822;9.304;2022-11-25T18:59:00;8.80;99.90
1534;DHT22;760;48.822;9.304;2022-11-25T19:01:27;8.80;99.90
1534;DHT22;760;48.822;9.304;2022-11-25T19:03:53;8.80;99.90
1534;DHT22;760;48.822;9.304;2022-11-25T19:06:20;8.80;99.90
1534;DHT22;760;48.822;9.304;2022-11-25T19:08:46;8.90;99.90
1534;DHT22;760;48.822;9.304;2022-11-25T19:11:30;8.80;99.90
1534;DHT22;760;48.822;9.304;2022-11-25T19:14:13;8.80;99.90
1534;DHT22;760;48.822;9.304;2022-11-25T19:16:41;8.70;99.90
1534;DHT22;760;48.822;9.304;2022-11-25T19:19:12;8.70;99.90
1534;DHT22;760;48.822;9.304;2022-11-25T19:21:38;8.70;99.90
1534;DHT22;760;48.822;9.304;2022-11-25T19:24:12;8.70;99.90
1534;DHT22;760;48.822;9.304;2022-11-25T19:26:42;8.60;99.90
1534;DHT22;760;48.822;9.304;2022-11-25T19:29:44;8.60;99.90
1534;DHT22;760;48.822;9.304;2022-11-25T19:32:03;8.60;99.90
1534;DHT22;760;48.822;9.304;2022-11-25T19:34:39;8.60;99.90
1534;DHT22;760;48.822;9.304;2022-11-25T19:37:15;8.60;99.90
1534;DHT22;760;48.822;9.304;2022-11-25T19:39:46;8.60;99.90
1534;DHT22;760;48.822;9.304;2022-11-25T19:42:12;8.60;99.90
1534;DHT22;760;48.822;9.304;2022-11-25T19:44:43;8.50;99.90
1534;DHT22;760;48.822;9.304;2022-11-25T19:47:29;8.50;99.90
1534;DHT22;760;48.822;9.304;2022-11-25T19:49:57;8.50;99.90
1534;DHT22;760;48.822;9.304;2022-11-25T19:52:32;8.50;99.90
1534;DHT22;760;48.822;9.304;2022-11-25T19:55:13;8.50;99.90
1534;DHT22;760;48.822;9.304;2022-11-25T19:57:39;8.50;99.90
1534;DHT22;760;48.822;9.304;2022-11-25T20:00:05;8.50;99.90
1534;DHT22;760;48.822;9.304;2022-11-25T20:02:32;8.50;99.90
1534;DHT22;760;48.822;9.304;2022-11-25T20:04:58;8.50;99.90
1534;DHT22;760;48.822;9.304;2022-11-25T20:07:25;8.50;99.90
1534;DHT22;760;48.822;9.304;2022-11-25T20:09:51;8.50;99.90
1534;DHT22;760;48.822;9.304;2022-11-25T20:14:46;8.50;99.90
1534;DHT22;760;48.822;9.304;2022-11-25T20:17:21;8.50;99.90
1534;DHT22;760;48.822;9.304;2022-11-25T20:19:49;8.50;99.90
1534;DHT22;760;48.822;9.304;2022-11-25T20:22:18;8.50;99.90
1534;DHT22;760;48.822;9.304;2022-11-25T20:24:45;8.50;99.90
1534;DHT22;760;48.822;9.304;2022-11-25T20:27:12;8.50;99.90
1534;DHT22;760;48.822;9.304;2022-11-25T20:29:37;8.50;99.90
1534;DHT22;760;48.822;9.304;2022-11-25T20:32:20;8.50;99.90
1534;DHT22;760;48.822;9.304;2022-11-25T20:34:48;8.50;99.90
1534;DHT22;760;48.822;9.304;2022-11-25T20:37:14;8.40;99.90
1534;DHT22;760;48.822;9.304;2022-11-25T20:39:42;8.40;99.90
1534;DHT22;760;48.822;9.304;2022-11-25T20:42:11;8.30;99.90
1534;DHT22;760;48.822;9.304;2022-11-25T20:44:37;8.20;99.90
1534;DHT22;760;48.822;9.304;2022-11-25T20:47:11;8.10;99.90
1534;DHT22;760;48.822;9.304;2022-11-25T20:49:37;8.00;99.90
1534;DHT22;760;48.822;9.304;2022-11-25T20:52:04;7.90;99.90
1534;DHT22;760;48.822;9.304;2022-11-25T20:54:29;7.90;99.90
1534;DHT22;760;48.822;9.304;2022-11-25T20:56:57;7.80;99.90
1534;DHT22;760;48.822;9.304;2022-11-25T20:59:27;7.80;99.90
1534;DHT22;760;48.822;9.304;2022-11-25T21:01:53;7.70;99.90
1534;DHT22;760;48.822;9.304;2022-11-25T21:04:19;7.70;99.90
1534;DHT22;760;48.822;9.304;2022-11-25T21:06:45;7.70;99.90
1534;DHT22;760;48.822;9.304;2022-11-25T21:09:16;7.70;99.90
1534;DHT22;760;48.822;9.304;2022-11-25T21:11:43;7.80;99.90
1534;DHT22;760;48.822;9.304;2022-11-25T21:14:13;7.80;99.90
1534;DHT22;760;48.822;9.304;2022-11-25T21:16:39;7.80;99.90
1534;DHT22;760;48.822;9.304;2022-11-25T21:19:05;7.80;99.90
1534;DHT22;760;48.822;9.304;2022-11-25T21:21:34;7.80;99.90
1534;DHT22;760;48.822;9.304;2022-11-25T21:26:49;7.70;99.90
1534;DHT22;760;48.822;9.304;2022-11-25T21:29:16;7.60;99.90
1534;DHT22;760;48.822;9.304;2022-11-25T21:31:42;7.60;99.90
1534;DHT22;760;48.822;9.304;2022-11-25T21:34:12;7.50;99.90
1534;DHT22;760;48.822;9.304;2022-11-25T21:36:38;7.40;99.90
1534;DHT22;760;48.822;9.304;2022-11-25T21:39:24;7.40;99.90
1534;DHT22;760;48.822;9.304;2022-11-25T21:41:50;7.30;99.90
1534;DHT22;760;48.822;9.304;2022-11-25T21:44:30;7.20;99.90
1534;DHT22;760;48.822;9.304;2022-11-25T21:46:56;7.10;99.90
1534;DHT22;760;48.822;9.304;2022-11-25T21:49:24;7.10;99.90
1534;DHT22;760;48.822;9.304;2022-11-25T21:51:50;7.10;99.90
1534;DHT22;760;48.822;9.304;2022-11-25T21:54:16;7.00;99.90
1534;DHT22;760;48.822;9.304;2022-11-25T21:56:41;7.00;99.90
1534;DHT22;760;48.822;9.304;2022-11-25T21:59:15;6.90;99.90
1534;DHT22;760;48.822;9.304;2022-11-25T22:01:42;6.90;99.90
1534;DHT22;760;48.822;9.304;2022-11-25T22:04:16;6.90;99.90
1534;DHT22;760;48.822;9.304;2022-11-25T22:06:42;6.90;99.90
1534;DHT22;760;48.822;9.304;2022-11-25T22:09:09;6.90;99.90
1534;DHT22;760;48.822;9.304;2022-11-25T22:11:37;6.90;99.90
1534;DHT22;760;48.822;9.304;2022-11-25T22:14:15;6.90;99.90
1534;DHT22;760;48.822;9.304;2022-11-25T22:16:41;6.90;99.90
1534;DHT22;760;48.822;9.304;2022-11-25T22:19:20;7.00;99.90
1534;DHT22;760;48.822;9.304;2022-11-25T22:21:46;7.00;99.90
1534;DHT22;760;48.822;9.304;2022-11-25T22:24:13;7.00;99.90
1534;DHT22;760;48.822;9.304;2022-11-25T22:26:39;7.00;99.90
1534;DHT22;760;48.822;9.304;2022-11-25T22:29:14;7.00;99.90
1534;DHT22;760;48.822;9.304;2022-11-25T22:31:41;7.10;99.90
1534;DHT22;760;48.822;9.304;2022-11-25T22:34:16;7.10;99.90
1534;DHT22;760;48.822;9.304;2022-11-25T22:36:43;7.10;99.90
1534;DHT22;760;48.822;9.304;2022-11-25T22:39:20;7.20;99.90
1534;DHT22;760;48.822;9.304;2022-11-25T22:41:48;7.20;99.90
1534;DHT22;760;48.822;9.304;2022-11-25T22:44:29;7.20;99.90
1534;DHT22;760;48.822;9.304;2022-11-25T22:46:56;7.30;99.90
1534;DHT22;760;48.822;9.304;2022-11-25T22:49:46;7.30;99.90
1534;DHT22;760;48.822;9.304;2022-11-25T22:52:20;7.30;99.90
1534;DHT22;760;48.822;9.304;2022-11-25T22:54:46;7.30;99.90
1534;DHT22;760;48.822;9.304;2022-11-25T22:57:12;7.40;99.90
1534;DHT22;760;48.822;9.304;2022-11-25T22:59:37;7.40;99.90
